Ana Sayfa
METAR-TAF:

METAR-TAF

Havaalanları :

Southwest Minnesota Regional Airport (Marshall/Ryan Field)

Marshall, Minnesota, Amerika Birleşik Devletleri

Enlem: 44-27N, Boylam: 095-49W, yükseklik: 359 m

Güncel hava durumu gözlemi

Rapor saat 08:56 UTC de 52 dakika önce yapıldı.
Rüzgar batı/kuzeybatıdan 8 kt
Sıcaklık 24°C
Nem 94%
Basınç 1007 hPa
Görüş mesafesi: 16.1 km
Açık gökyüzü

METAR: KMML 250856Z AUTO 30008KT 10SM CLR 24/23 A2975 RMK AO2 SLP067 T02390233 53036

Saat: 04:48 (09:48 UTC)


TAF: eksik

4.000'den fazla havaalanı için hava durumu gözlemleri ve tahminleri (METAR ve TAF raporları).

Kullanılabilir istasyonlar harita üzerinde sarı ve kırmızı noktalarla gösterilir.

İstasyonun adını görmek için fareyi noktanın üzerinde gezdirin.

Sonrasında hava gözlem ve tahminlerini görmek için tıklayın.

Haritayı değiştirmek için: yaklaştırmak için siyah artı işaretli yeşil düğmeye ve uzaklaştırmak için de eksi işaretli düğmeye hızla tıklayın; bitişik haritalar için yeşil okları kullanın.


METAR-TAF: